createdAt,value
2018-08-12T00:01:03.317Z,99.90
2018-08-12T00:03:31.457Z,99.90
2018-08-12T00:05:59.484Z,99.90
2018-08-12T00:08:27.611Z,99.90
2018-08-12T00:10:55.685Z,99.90
2018-08-12T00:13:23.762Z,99.90
2018-08-12T00:15:51.807Z,99.90
2018-08-12T00:18:19.876Z,99.90
2018-08-12T00:20:47.931Z,99.90
2018-08-12T00:23:15.986Z,99.90
2018-08-12T00:25:44.016Z,99.90
2018-08-12T00:28:12.065Z,99.90
2018-08-12T00:30:40.129Z,99.90
2018-08-12T00:33:08.179Z,99.90
2018-08-12T00:35:36.214Z,99.90
2018-08-12T00:38:04.282Z,99.90
2018-08-12T00:40:32.346Z,99.90
2018-08-12T00:43:00.426Z,99.90
2018-08-12T00:45:28.499Z,99.90
2018-08-12T00:47:56.570Z,99.90
2018-08-12T00:50:24.622Z,99.90
2018-08-12T00:52:52.684Z,99.90
2018-08-12T00:55:20.738Z,99.90
2018-08-12T00:57:49.138Z,99.90
2018-08-12T01:00:19.560Z,99.90
2018-08-12T01:02:47.609Z,99.90
2018-08-12T01:05:16.714Z,99.90
2018-08-12T01:07:45.264Z,99.90
2018-08-12T01:10:14.194Z,99.90
2018-08-12T01:12:42.250Z,99.90
2018-08-12T01:15:12.789Z,99.90
2018-08-12T01:20:34.389Z,99.90
2018-08-12T01:23:02.450Z,99.90
2018-08-12T01:25:30.710Z,99.90
2018-08-12T01:27:58.770Z,99.90
2018-08-12T01:30:26.825Z,99.90
2018-08-12T01:32:54.894Z,99.90
2018-08-12T01:35:22.950Z,99.90
2018-08-12T01:37:51.040Z,99.90
2018-08-12T01:40:19.751Z,99.90
2018-08-12T01:42:47.844Z,99.90
2018-08-12T01:45:17.729Z,99.90
2018-08-12T01:47:45.835Z,99.90
2018-08-12T01:50:14.992Z,99.90
2018-08-12T01:52:43.077Z,99.90
2018-08-12T01:55:11.160Z,99.90
2018-08-12T01:57:39.239Z,99.90
2018-08-12T02:00:09.773Z,99.90
2018-08-12T02:02:37.817Z,99.90
2018-08-12T02:05:06.653Z,99.90
2018-08-12T02:07:34.712Z,99.90
2018-08-12T02:10:02.829Z,99.90
2018-08-12T02:12:30.897Z,99.90
2018-08-12T02:14:59.012Z,99.90
2018-08-12T02:17:27.099Z,99.90
2018-08-12T02:19:55.163Z,99.90
2018-08-12T02:22:23.212Z,99.90
2018-08-12T02:24:51.252Z,99.90
2018-08-12T02:27:19.325Z,99.90
2018-08-12T02:29:47.422Z,99.90
2018-08-12T02:32:15.470Z,99.90
2018-08-12T02:34:43.561Z,99.90
2018-08-12T02:37:11.623Z,99.90
2018-08-12T02:39:39.739Z,99.90
2018-08-12T02:42:07.808Z,99.90
2018-08-12T02:44:35.862Z,99.90
2018-08-12T02:47:03.953Z,99.90
2018-08-12T02:49:32.028Z,99.90
2018-08-12T02:52:00.096Z,99.90
2018-08-12T02:54:28.193Z,99.90
2018-08-12T02:56:56.261Z,99.90
2018-08-12T02:59:24.316Z,99.90
2018-08-12T03:01:52.467Z,99.90
2018-08-12T03:04:20.537Z,99.90
2018-08-12T03:06:48.591Z,99.90
2018-08-12T03:09:16.671Z,99.90
2018-08-12T03:11:44.697Z,99.90
2018-08-12T03:14:12.770Z,99.90
2018-08-12T03:16:40.988Z,99.90
2018-08-12T03:19:09.102Z,99.90
2018-08-12T03:21:37.174Z,99.90
2018-08-12T03:24:05.265Z,99.90
2018-08-12T03:26:34.456Z,99.90
2018-08-12T03:29:02.525Z,99.90
2018-08-12T03:31:30.610Z,99.90
2018-08-12T03:33:58.674Z,99.90
2018-08-12T03:36:26.734Z,99.90
2018-08-12T03:38:54.845Z,99.90
2018-08-12T03:41:22.888Z,99.90
2018-08-12T03:43:50.949Z,99.90
2018-08-12T03:46:19.035Z,99.90
2018-08-12T03:48:47.150Z,99.90
2018-08-12T03:51:15.186Z,99.90
2018-08-12T03:53:43.244Z,99.90
2018-08-12T03:56:11.295Z,99.90
2018-08-12T03:58:39.373Z,99.90
2018-08-12T04:01:07.824Z,99.90
2018-08-12T04:03:35.886Z,99.90
2018-08-12T04:06:04.020Z,99.90
2018-08-12T04:08:32.109Z,99.90
2018-08-12T04:11:00.225Z,99.90
2018-08-12T04:13:28.344Z,99.90
2018-08-12T04:15:56.482Z,99.90
2018-08-12T04:18:24.566Z,99.90
2018-08-12T04:20:52.666Z,99.90
2018-08-12T04:23:20.774Z,99.90
2018-08-12T04:25:49.955Z,99.90
2018-08-12T04:28:18.272Z,99.90
2018-08-12T04:30:46.324Z,99.90
2018-08-12T04:33:14.451Z,99.90
2018-08-12T04:35:42.583Z,99.90
2018-08-12T04:38:10.651Z,99.90
2018-08-12T04:40:38.787Z,99.90
2018-08-12T04:43:06.857Z,99.90
2018-08-12T04:45:34.993Z,99.90
2018-08-12T04:48:03.085Z,99.90
2018-08-12T04:50:31.164Z,99.90
2018-08-12T04:52:59.235Z,99.90
2018-08-12T04:55:27.353Z,99.90
2018-08-12T04:57:55.463Z,99.90
2018-08-12T05:00:23.725Z,99.90
2018-08-12T05:02:51.818Z,99.90
2018-08-12T05:05:19.885Z,99.90
2018-08-12T05:07:47.982Z,99.90
2018-08-12T05:10:16.085Z,99.90
2018-08-12T05:12:44.169Z,99.90
2018-08-12T05:15:12.282Z,99.90
2018-08-12T05:17:40.645Z,99.90
2018-08-12T05:20:09.397Z,99.90
2018-08-12T05:22:37.574Z,99.90
2018-08-12T05:25:05.675Z,99.90
2018-08-12T05:27:33.852Z,99.90
2018-08-12T05:30:01.925Z,99.90
2018-08-12T05:32:29.988Z,99.90
2018-08-12T05:34:58.093Z,99.90
2018-08-12T05:37:26.251Z,99.90
2018-08-12T05:39:54.427Z,99.90
2018-08-12T05:42:22.532Z,99.90
2018-08-12T05:44:50.641Z,99.90
2018-08-12T05:47:18.749Z,99.90
2018-08-12T05:49:46.833Z,99.90
2018-08-12T05:52:14.927Z,99.90
2018-08-12T05:54:42.995Z,99.90
2018-08-12T05:57:11.077Z,99.90
2018-08-12T05:59:39.187Z,99.90
2018-08-12T06:02:07.350Z,99.90
2018-08-12T06:04:35.446Z,99.90
2018-08-12T06:07:03.554Z,99.90
2018-08-12T06:09:31.698Z,99.90
2018-08-12T06:11:59.813Z,99.90
2018-08-12T06:14:27.967Z,99.90
2018-08-12T06:16:56.056Z,99.90
2018-08-12T06:19:24.145Z,99.90
2018-08-12T06:21:52.235Z,99.90
2018-08-12T06:24:20.345Z,99.90
2018-08-12T06:26:48.428Z,99.90
2018-08-12T06:29:16.530Z,99.90
2018-08-12T06:31:44.630Z,99.90
2018-08-12T06:34:12.774Z,99.90
2018-08-12T06:36:40.892Z,99.90
2018-08-12T06:39:10.546Z,99.90
2018-08-12T06:41:38.645Z,99.90
2018-08-12T06:44:06.918Z,99.90
2018-08-12T06:46:35.523Z,99.90
2018-08-12T06:49:03.654Z,99.90
2018-08-12T06:51:31.751Z,99.90
2018-08-12T06:54:00.908Z,99.90
2018-08-12T06:56:29.001Z,99.90
2018-08-12T06:58:57.093Z,99.90
2018-08-12T07:01:25.224Z,99.90
2018-08-12T07:03:53.317Z,99.90
2018-08-12T07:06:21.419Z,99.90
2018-08-12T07:08:49.645Z,99.90
2018-08-12T07:11:17.753Z,99.90
2018-08-12T07:13:45.856Z,99.90
2018-08-12T07:16:13.977Z,99.90
2018-08-12T07:18:42.138Z,99.90
2018-08-12T07:21:10.263Z,99.90
2018-08-12T07:23:38.375Z,99.90
2018-08-12T07:26:06.479Z,99.90
2018-08-12T07:28:34.614Z,99.90
2018-08-12T07:31:02.718Z,99.90
2018-08-12T07:33:30.805Z,99.90
2018-08-12T07:35:58.886Z,99.90
2018-08-12T07:38:27.088Z,99.60
2018-08-12T07:40:55.167Z,99.20
2018-08-12T07:43:23.300Z,97.60
2018-08-12T07:45:51.460Z,98.60
2018-08-12T07:48:19.530Z,95.60
2018-08-12T07:50:47.646Z,95.80
2018-08-12T07:53:15.758Z,97.80
2018-08-12T07:55:43.890Z,96.10
2018-08-12T07:58:11.965Z,95.50
2018-08-12T08:00:40.077Z,96.70
2018-08-12T08:03:09.312Z,96.70
2018-08-12T08:05:37.414Z,96.20
2018-08-12T08:08:05.619Z,96.30
2018-08-12T08:13:26.446Z,93.50
2018-08-12T08:15:54.544Z,94.20
2018-08-12T08:18:24.326Z,91.20
2018-08-12T08:20:52.430Z,91.00
2018-08-12T08:23:20.559Z,91.90
2018-08-12T08:25:48.673Z,89.10
2018-08-12T08:28:16.965Z,90.50
2018-08-12T08:30:50.140Z,90.30
2018-08-12T08:33:18.345Z,85.00
2018-08-12T08:35:46.449Z,85.90
2018-08-12T08:38:14.609Z,81.30
2018-08-12T08:40:42.750Z,77.70
2018-08-12T08:43:10.878Z,77.90
2018-08-12T08:45:39.027Z,75.50
2018-08-12T08:48:07.300Z,75.70
2018-08-12T08:50:35.459Z,70.50
2018-08-12T08:53:03.620Z,69.00
2018-08-12T08:55:32.809Z,70.00
2018-08-12T08:58:00.958Z,72.50
2018-08-12T09:00:29.077Z,72.80
2018-08-12T09:02:57.217Z,67.90
2018-08-12T09:05:25.306Z,65.10
2018-08-12T09:07:53.501Z,66.60
2018-08-12T09:10:21.848Z,64.40
2018-08-12T09:12:50.030Z,66.30
2018-08-12T09:15:19.135Z,66.80
2018-08-12T09:17:48.000Z,65.40
2018-08-12T09:20:18.252Z,66.00
2018-08-12T09:22:46.451Z,61.90
2018-08-12T09:25:14.604Z,61.60
2018-08-12T09:27:42.722Z,58.30
2018-08-12T09:30:14.119Z,58.60
2018-08-12T09:32:42.514Z,55.80
2018-08-12T09:35:10.605Z,53.70
2018-08-12T09:37:38.683Z,53.00
2018-08-12T09:40:08.833Z,51.30
2018-08-12T09:42:36.987Z,56.80
2018-08-12T09:45:07.018Z,55.20
2018-08-12T09:47:35.195Z,55.80
2018-08-12T09:50:03.477Z,54.00
2018-08-12T09:52:31.593Z,56.00
2018-08-12T09:54:59.730Z,49.20
2018-08-12T09:57:27.889Z,47.80
2018-08-12T09:59:56.112Z,51.20
2018-08-12T10:02:24.290Z,48.90
2018-08-12T10:04:52.409Z,51.40
2018-08-12T10:07:20.577Z,48.60
2018-08-12T10:09:48.645Z,47.80
2018-08-12T10:12:16.801Z,46.00
2018-08-12T10:14:44.971Z,46.90
2018-08-12T10:17:36.277Z,49.20
2018-08-12T10:20:04.982Z,48.10
2018-08-12T10:22:33.103Z,46.90
2018-08-12T10:25:01.272Z,49.60
2018-08-12T10:27:29.386Z,49.80
2018-08-12T10:29:58.606Z,49.70
2018-08-12T10:32:26.755Z,46.50
2018-08-12T10:34:54.871Z,42.00
2018-08-12T10:37:23.100Z,43.50
2018-08-12T10:39:51.250Z,43.30
2018-08-12T10:42:19.572Z,42.60
2018-08-12T10:44:47.769Z,40.50
2018-08-12T10:47:15.974Z,40.70
2018-08-12T10:49:44.243Z,42.70
2018-08-12T10:52:12.362Z,40.80
2018-08-12T10:54:40.524Z,44.80
2018-08-12T10:57:08.653Z,42.70
2018-08-12T10:59:36.787Z,44.70
2018-08-12T11:02:04.940Z,45.90
2018-08-12T11:04:33.067Z,47.40
2018-08-12T11:07:01.232Z,46.20
2018-08-12T11:09:29.383Z,48.80
2018-08-12T11:11:57.606Z,47.00
2018-08-12T11:14:26.827Z,40.10
2018-08-12T11:16:54.998Z,42.10
2018-08-12T11:19:23.179Z,36.70
2018-08-12T11:21:51.326Z,39.80
2018-08-12T11:24:19.570Z,37.90
2018-08-12T11:26:47.762Z,39.50
2018-08-12T11:29:15.939Z,38.90
2018-08-12T11:31:44.071Z,40.20
2018-08-12T11:34:12.218Z,38.20
2018-08-12T11:36:40.361Z,37.30
2018-08-12T11:39:09.872Z,39.50
2018-08-12T11:41:38.065Z,37.90
2018-08-12T11:44:06.187Z,38.80
2018-08-12T11:46:34.388Z,39.60
2018-08-12T11:49:02.576Z,37.70
2018-08-12T11:51:30.847Z,38.50
2018-08-12T11:53:59.036Z,39.50
2018-08-12T11:56:27.261Z,39.00
2018-08-12T11:58:55.407Z,41.20
2018-08-12T12:01:23.636Z,38.10
2018-08-12T12:03:51.782Z,37.20
2018-08-12T12:06:19.932Z,37.10
2018-08-12T12:08:48.063Z,38.00
2018-08-12T12:11:16.212Z,38.50
2018-08-12T12:13:44.778Z,38.70
2018-08-12T12:16:13.016Z,36.10
2018-08-12T12:18:41.140Z,40.30
2018-08-12T12:24:01.805Z,42.70
2018-08-12T12:26:30.020Z,41.20
2018-08-12T12:28:58.245Z,42.40
2018-08-12T12:31:26.490Z,42.50
2018-08-12T12:33:54.583Z,42.00
2018-08-12T12:36:22.695Z,42.50
2018-08-12T12:38:50.806Z,42.50
2018-08-12T12:41:18.948Z,38.00
2018-08-12T12:43:47.096Z,39.30
2018-08-12T12:46:15.249Z,38.80
2018-08-12T12:48:43.417Z,41.60
2018-08-12T12:51:11.687Z,41.00
2018-08-12T12:53:39.809Z,39.90
2018-08-12T12:56:07.956Z,41.00
2018-08-12T12:58:36.109Z,41.30
2018-08-12T13:01:04.438Z,40.30
2018-08-12T13:03:32.710Z,40.90
2018-08-12T13:06:00.892Z,39.70
2018-08-12T13:08:29.019Z,40.10
2018-08-12T13:10:57.258Z,43.30
2018-08-12T13:13:25.460Z,42.80
2018-08-12T13:15:53.647Z,43.50
2018-08-12T13:18:37.786Z,44.80
2018-08-12T13:21:06.187Z,42.90
2018-08-12T13:23:34.377Z,40.40
2018-08-12T13:26:02.610Z,39.80
2018-08-12T13:28:30.806Z,36.30
2018-08-12T13:30:59.022Z,36.40
2018-08-12T13:33:27.211Z,33.90
2018-08-12T13:35:55.397Z,36.30
2018-08-12T13:38:23.595Z,38.30
2018-08-12T13:40:51.862Z,37.60
2018-08-12T13:43:20.223Z,37.60
2018-08-12T13:45:48.448Z,39.30
2018-08-12T13:48:16.883Z,38.00
2018-08-12T13:50:45.110Z,35.20
2018-08-12T13:53:13.358Z,32.20
2018-08-12T13:55:41.510Z,30.60
2018-08-12T13:58:09.690Z,34.10
2018-08-12T14:00:37.881Z,32.80
2018-08-12T14:03:06.117Z,32.20
2018-08-12T14:05:34.465Z,33.60
2018-08-12T14:08:02.850Z,34.70
2018-08-12T14:10:31.080Z,35.40
2018-08-12T14:12:59.217Z,34.60
2018-08-12T14:15:27.464Z,33.70
2018-08-12T14:17:55.671Z,34.30
2018-08-12T14:20:23.871Z,35.30
2018-08-12T14:22:52.114Z,36.20
2018-08-12T14:25:20.250Z,38.50
2018-08-12T14:27:48.399Z,36.90
2018-08-12T14:30:20.099Z,34.90
2018-08-12T14:32:48.762Z,35.80
2018-08-12T14:35:16.919Z,38.40
2018-08-12T14:37:45.260Z,36.20
2018-08-12T14:40:13.888Z,37.00
2018-08-12T14:42:42.317Z,36.30
2018-08-12T14:45:12.298Z,35.50
2018-08-12T14:47:41.028Z,37.30
2018-08-12T14:50:13.757Z,34.00
2018-08-12T14:52:42.113Z,35.40
2018-08-12T14:55:11.177Z,36.20
2018-08-12T14:57:39.778Z,38.70
2018-08-12T15:00:10.630Z,38.30
2018-08-12T15:05:31.771Z,37.30
2018-08-12T15:07:59.916Z,41.20
2018-08-12T15:10:28.440Z,39.50
2018-08-12T15:12:56.577Z,38.50
2018-08-12T15:15:24.797Z,38.60
2018-08-12T15:17:52.876Z,39.50
2018-08-12T15:20:21.009Z,39.00
2018-08-12T15:22:49.182Z,40.10
2018-08-12T15:25:18.829Z,38.60
2018-08-12T15:27:47.367Z,36.20
2018-08-12T15:30:15.469Z,37.50
2018-08-12T15:32:43.550Z,38.10
2018-08-12T15:35:11.680Z,36.70
2018-08-12T15:37:39.912Z,35.80
2018-08-12T15:40:10.805Z,34.30
2018-08-12T15:42:39.095Z,38.20
2018-08-12T15:45:10.178Z,35.00
2018-08-12T15:47:38.393Z,38.10
2018-08-12T15:50:07.234Z,41.40
2018-08-12T15:52:35.377Z,39.70
2018-08-12T15:55:03.558Z,41.20
2018-08-12T15:57:31.903Z,41.60
2018-08-12T16:00:00.122Z,41.80
2018-08-12T16:02:28.273Z,41.50
2018-08-12T16:04:56.470Z,43.50
2018-08-12T16:07:24.643Z,44.40
2018-08-12T16:09:52.760Z,45.50
2018-08-12T16:12:20.993Z,45.00
2018-08-12T16:14:49.143Z,45.00
2018-08-12T16:17:17.335Z,45.20
2018-08-12T16:19:45.424Z,46.90
2018-08-12T16:22:13.644Z,48.80
2018-08-12T16:24:41.805Z,47.40
2018-08-12T16:27:10.009Z,46.40
2018-08-12T16:29:38.204Z,46.60
2018-08-12T16:32:06.362Z,47.20
2018-08-12T16:34:34.530Z,46.20
2018-08-12T16:37:02.687Z,46.30
2018-08-12T16:39:30.873Z,45.20
2018-08-12T16:41:59.101Z,46.20
2018-08-12T16:44:27.384Z,45.50
2018-08-12T16:46:55.704Z,46.20
2018-08-12T16:49:24.009Z,48.50
2018-08-12T16:51:52.233Z,48.70
2018-08-12T16:54:20.374Z,50.10
2018-08-12T16:56:48.664Z,49.10
2018-08-12T16:59:16.732Z,46.50
2018-08-12T17:01:44.882Z,48.10
2018-08-12T17:04:13.075Z,49.00
2018-08-12T17:06:41.256Z,48.10
2018-08-12T17:09:11.127Z,49.20
2018-08-12T17:11:39.395Z,49.70
2018-08-12T17:14:08.032Z,50.10
2018-08-12T17:16:36.265Z,49.40
2018-08-12T17:19:04.624Z,51.00
2018-08-12T17:21:32.839Z,49.70
2018-08-12T17:24:01.054Z,50.30
2018-08-12T17:26:29.203Z,51.50
2018-08-12T17:28:57.359Z,50.90
2018-08-12T17:31:25.649Z,54.50
2018-08-12T17:33:53.850Z,55.90
2018-08-12T17:36:22.067Z,55.50
2018-08-12T17:38:50.391Z,56.10
2018-08-12T17:41:18.577Z,55.70
2018-08-12T17:43:46.736Z,55.60
2018-08-12T17:46:14.878Z,56.10
2018-08-12T17:48:43.098Z,56.80
2018-08-12T17:51:11.196Z,60.50
2018-08-12T17:56:32.553Z,64.80
2018-08-12T17:59:00.725Z,65.70
2018-08-12T18:01:28.916Z,65.20
2018-08-12T18:03:57.039Z,66.10
2018-08-12T18:06:25.249Z,70.10
2018-08-12T18:08:53.352Z,71.30
2018-08-12T18:11:21.647Z,73.70
2018-08-12T18:13:49.742Z,77.00
2018-08-12T18:16:17.866Z,80.00
2018-08-12T18:18:45.945Z,81.60
2018-08-12T18:21:14.102Z,82.80
2018-08-12T18:23:42.190Z,86.30
2018-08-12T18:26:10.273Z,90.40
2018-08-12T18:28:38.391Z,92.50
2018-08-12T18:31:06.479Z,96.40
2018-08-12T18:33:34.612Z,99.10
2018-08-12T18:36:02.681Z,99.90
2018-08-12T18:38:30.844Z,99.90
2018-08-12T18:40:58.986Z,99.90
2018-08-12T18:43:27.125Z,99.90
2018-08-12T18:45:55.252Z,99.90
2018-08-12T18:48:23.370Z,99.90
2018-08-12T18:50:51.476Z,99.90
2018-08-12T18:53:20.593Z,99.90
2018-08-12T18:55:49.188Z,99.90
2018-08-12T18:58:17.498Z,99.90
2018-08-12T19:00:45.709Z,99.90
2018-08-12T19:03:13.922Z,99.90
2018-08-12T19:05:42.086Z,99.90
2018-08-12T19:08:10.118Z,99.90
2018-08-12T19:10:38.235Z,99.90
2018-08-12T19:13:06.288Z,99.90
2018-08-12T19:15:34.367Z,99.90
2018-08-12T19:18:02.605Z,99.90
2018-08-12T19:20:30.665Z,99.90
2018-08-12T19:22:58.739Z,99.90
2018-08-12T19:25:26.805Z,99.90
2018-08-12T19:27:54.853Z,99.90
2018-08-12T19:30:22.910Z,99.90
2018-08-12T19:32:51.144Z,99.90
2018-08-12T19:35:19.214Z,99.90
2018-08-12T19:37:47.298Z,99.90
2018-08-12T19:40:15.341Z,99.90
2018-08-12T19:42:43.463Z,99.90
2018-08-12T19:45:12.176Z,99.90
2018-08-12T19:47:40.264Z,99.90
2018-08-12T19:50:08.567Z,99.90
2018-08-12T19:52:36.610Z,99.90
2018-08-12T19:55:05.266Z,99.90
2018-08-12T19:57:33.318Z,99.90
2018-08-12T20:00:01.566Z,99.90
2018-08-12T20:02:29.607Z,99.90
2018-08-12T20:04:57.708Z,99.90
2018-08-12T20:07:25.760Z,99.90
2018-08-12T20:12:25.929Z,99.90
2018-08-12T20:14:53.995Z,99.90
2018-08-12T20:17:22.117Z,99.90
2018-08-12T20:19:50.177Z,99.90
2018-08-12T20:22:18.370Z,99.90
2018-08-12T20:24:46.712Z,99.90
2018-08-12T20:27:14.818Z,99.90
2018-08-12T20:29:43.386Z,99.90
2018-08-12T20:32:11.440Z,99.90
2018-08-12T20:34:39.742Z,99.90
2018-08-12T20:37:07.859Z,99.90
2018-08-12T20:39:35.985Z,99.90
2018-08-12T20:42:04.102Z,99.90
2018-08-12T20:47:24.578Z,99.90
2018-08-12T20:49:52.639Z,99.90
2018-08-12T20:52:20.694Z,99.90
2018-08-12T20:54:48.777Z,99.90
2018-08-12T20:57:16.898Z,99.90
2018-08-12T20:59:44.964Z,99.90
2018-08-12T21:02:13.026Z,99.90
2018-08-12T21:04:41.302Z,99.90
2018-08-12T21:07:09.363Z,99.90
2018-08-12T21:09:37.445Z,99.90
2018-08-12T21:12:05.677Z,99.90
2018-08-12T21:14:33.545Z,99.90
2018-08-12T21:17:01.615Z,99.90
2018-08-12T21:19:29.910Z,99.90
2018-08-12T21:21:58.110Z,99.90
2018-08-12T21:24:26.430Z,99.90
2018-08-12T21:26:54.754Z,99.90
2018-08-12T21:29:22.802Z,99.90
2018-08-12T21:31:50.879Z,99.90
2018-08-12T21:34:21.026Z,99.90
2018-08-12T21:36:49.109Z,99.90
2018-08-12T21:39:17.162Z,99.90
2018-08-12T21:41:45.276Z,99.90
2018-08-12T21:44:13.282Z,99.90
2018-08-12T21:46:41.345Z,99.90
2018-08-12T21:49:09.394Z,99.90
2018-08-12T21:51:37.531Z,99.90
2018-08-12T21:54:05.589Z,99.90
2018-08-12T21:56:33.658Z,99.90
2018-08-12T21:59:01.709Z,99.90
2018-08-12T22:01:29.789Z,99.90
2018-08-12T22:03:57.834Z,99.90
2018-08-12T22:06:25.921Z,99.90
2018-08-12T22:08:54.075Z,99.90
2018-08-12T22:11:22.133Z,99.90
2018-08-12T22:13:50.197Z,99.90
2018-08-12T22:16:18.318Z,99.90
2018-08-12T22:18:46.388Z,99.90
2018-08-12T22:21:14.483Z,99.90
2018-08-12T22:23:42.574Z,99.90
2018-08-12T22:26:10.653Z,99.90
2018-08-12T22:28:38.715Z,99.90
2018-08-12T22:31:06.759Z,99.90
2018-08-12T22:33:34.814Z,99.90
2018-08-12T22:36:02.889Z,99.90
2018-08-12T22:38:30.964Z,99.90
2018-08-12T22:40:59.026Z,99.90
2018-08-12T22:43:28.438Z,99.90
2018-08-12T22:45:56.506Z,99.90
2018-08-12T22:48:24.581Z,99.90
2018-08-12T22:50:52.630Z,99.90
2018-08-12T22:53:20.673Z,99.90
2018-08-12T22:55:48.731Z,99.90
2018-08-12T22:58:16.779Z,99.90
2018-08-12T23:00:44.868Z,99.90
2018-08-12T23:03:12.960Z,99.90
2018-08-12T23:05:40.998Z,99.90
2018-08-12T23:08:09.851Z,99.90
2018-08-12T23:10:38.680Z,99.90
2018-08-12T23:13:06.796Z,99.90
2018-08-12T23:16:44.859Z,99.90
2018-08-12T23:19:12.947Z,99.90
2018-08-12T23:21:41.004Z,99.90
2018-08-12T23:24:09.065Z,99.90
2018-08-12T23:26:37.175Z,99.90
2018-08-12T23:29:05.229Z,99.90
2018-08-12T23:31:33.297Z,99.90
2018-08-12T23:34:01.374Z,99.90
2018-08-12T23:36:29.434Z,99.90
2018-08-12T23:38:57.525Z,99.90
2018-08-12T23:41:25.561Z,99.90
2018-08-12T23:43:53.616Z,99.90
2018-08-12T23:46:21.661Z,99.90
2018-08-12T23:48:49.743Z,99.90
2018-08-12T23:51:17.809Z,99.90
2018-08-12T23:53:45.876Z,99.90
2018-08-12T23:56:14.032Z,99.90
2018-08-12T23:58:42.101Z,99.90
